sensor_id;sensor_type;location;lat;lon;timestamp;P1;durP1;ratioP1;P2;durP2;ratioP2
75135;SDS011;63707;52.212;9.540;2023-04-29T00:01:37;43.42;;;21.92;;
75135;SDS011;63707;52.212;9.540;2023-04-29T00:04:03;44.55;;;21.17;;
75135;SDS011;63707;52.212;9.540;2023-04-29T00:06:28;43.88;;;21.30;;
75135;SDS011;63707;52.212;9.540;2023-04-29T00:08:54;48.63;;;23.40;;
75135;SDS011;63707;52.212;9.540;2023-04-29T00:11:20;48.22;;;22.98;;
75135;SDS011;63707;52.212;9.540;2023-04-29T00:13:47;44.40;;;23.42;;
75135;SDS011;63707;52.212;9.540;2023-04-29T00:16:12;47.28;;;24.10;;
75135;SDS011;63707;52.212;9.540;2023-04-29T00:18:38;48.13;;;23.55;;
75135;SDS011;63707;52.212;9.540;2023-04-29T00:21:03;50.63;;;23.90;;
75135;SDS011;63707;52.212;9.540;2023-04-29T00:23:32;52.60;;;24.23;;
75135;SDS011;63707;52.212;9.540;2023-04-29T00:25:57;51.97;;;25.75;;
75135;SDS011;63707;52.212;9.540;2023-04-29T00:28:23;55.58;;;26.23;;
75135;SDS011;63707;52.212;9.540;2023-04-29T00:30:50;55.85;;;26.00;;
75135;SDS011;63707;52.212;9.540;2023-04-29T00:33:16;54.65;;;26.00;;
75135;SDS011;63707;52.212;9.540;2023-04-29T00:35:41;57.35;;;26.63;;
75135;SDS011;63707;52.212;9.540;2023-04-29T00:38:07;54.50;;;26.65;;
75135;SDS011;63707;52.212;9.540;2023-04-29T00:40:33;58.28;;;28.10;;
75135;SDS011;63707;52.212;9.540;2023-04-29T00:42:59;61.33;;;29.73;;
75135;SDS011;63707;52.212;9.540;2023-04-29T00:45:25;63.50;;;29.75;;
75135;SDS011;63707;52.212;9.540;2023-04-29T00:47:52;58.53;;;28.30;;
75135;SDS011;63707;52.212;9.540;2023-04-29T00:50:18;67.03;;;29.65;;
75135;SDS011;63707;52.212;9.540;2023-04-29T00:52:45;62.95;;;27.98;;
75135;SDS011;63707;52.212;9.540;2023-04-29T00:55:12;68.30;;;29.10;;
75135;SDS011;63707;52.212;9.540;2023-04-29T00:57:38;65.90;;;27.52;;
75135;SDS011;63707;52.212;9.540;2023-04-29T01:00:04;68.53;;;28.23;;
75135;SDS011;63707;52.212;9.540;2023-04-29T01:02:31;63.05;;;27.33;;
75135;SDS011;63707;52.212;9.540;2023-04-29T01:04:58;67.88;;;27.33;;
75135;SDS011;63707;52.212;9.540;2023-04-29T01:07:25;69.53;;;29.65;;
75135;SDS011;63707;52.212;9.540;2023-04-29T01:09:58;69.00;;;28.38;;
75135;SDS011;63707;52.212;9.540;2023-04-29T01:12:30;65.13;;;26.88;;
75135;SDS011;63707;52.212;9.540;2023-04-29T01:15:02;74.30;;;27.85;;
75135;SDS011;63707;52.212;9.540;2023-04-29T01:17:33;68.82;;;27.98;;
75135;SDS011;63707;52.212;9.540;2023-04-29T01:20:05;63.58;;;26.25;;
75135;SDS011;63707;52.212;9.540;2023-04-29T01:22:32;65.75;;;26.55;;
75135;SDS011;63707;52.212;9.540;2023-04-29T01:25:00;68.78;;;26.58;;
75135;SDS011;63707;52.212;9.540;2023-04-29T01:27:27;62.40;;;26.45;;
75135;SDS011;63707;52.212;9.540;2023-04-29T01:29:58;61.65;;;25.70;;
75135;SDS011;63707;52.212;9.540;2023-04-29T01:32:29;58.63;;;24.23;;
75135;SDS011;63707;52.212;9.540;2023-04-29T01:35:14;70.78;;;27.95;;
75135;SDS011;63707;52.212;9.540;2023-04-29T01:37:51;62.92;;;26.63;;
75135;SDS011;63707;52.212;9.540;2023-04-29T01:40:25;62.95;;;25.08;;
75135;SDS011;63707;52.212;9.540;2023-04-29T01:42:55;72.43;;;28.88;;
75135;SDS011;63707;52.212;9.540;2023-04-29T01:45:25;76.93;;;28.42;;
75135;SDS011;63707;52.212;9.540;2023-04-29T01:47:53;65.47;;;26.42;;
75135;SDS011;63707;52.212;9.540;2023-04-29T01:50:22;60.33;;;24.70;;
75135;SDS011;63707;52.212;9.540;2023-04-29T01:52:47;65.30;;;27.00;;
75135;SDS011;63707;52.212;9.540;2023-04-29T01:55:13;68.72;;;27.20;;
75135;SDS011;63707;52.212;9.540;2023-04-29T01:57:40;70.03;;;27.38;;
75135;SDS011;63707;52.212;9.540;2023-04-29T02:00:06;62.72;;;25.50;;
75135;SDS011;63707;52.212;9.540;2023-04-29T02:02:33;64.47;;;24.15;;
75135;SDS011;63707;52.212;9.540;2023-04-29T02:04:58;67.80;;;26.40;;
75135;SDS011;63707;52.212;9.540;2023-04-29T02:07:24;59.22;;;24.83;;
75135;SDS011;63707;52.212;9.540;2023-04-29T02:09:49;64.55;;;25.35;;
75135;SDS011;63707;52.212;9.540;2023-04-29T02:12:15;65.35;;;24.55;;
75135;SDS011;63707;52.212;9.540;2023-04-29T02:14:42;56.20;;;23.30;;
75135;SDS011;63707;52.212;9.540;2023-04-29T02:17:07;63.08;;;24.13;;
75135;SDS011;63707;52.212;9.540;2023-04-29T02:19:33;66.85;;;24.00;;
75135;SDS011;63707;52.212;9.540;2023-04-29T02:21:59;67.60;;;23.92;;
75135;SDS011;63707;52.212;9.540;2023-04-29T02:24:24;61.92;;;22.75;;
75135;SDS011;63707;52.212;9.540;2023-04-29T02:26:50;41.85;;;18.23;;
75135;SDS011;63707;52.212;9.540;2023-04-29T02:29:16;46.45;;;19.02;;
75135;SDS011;63707;52.212;9.540;2023-04-29T02:31:42;53.22;;;21.20;;
75135;SDS011;63707;52.212;9.540;2023-04-29T02:34:08;55.60;;;21.60;;
75135;SDS011;63707;52.212;9.540;2023-04-29T02:36:33;47.85;;;19.50;;
75135;SDS011;63707;52.212;9.540;2023-04-29T02:38:59;54.72;;;19.67;;
75135;SDS011;63707;52.212;9.540;2023-04-29T02:41:24;48.33;;;19.02;;
75135;SDS011;63707;52.212;9.540;2023-04-29T02:43:50;46.65;;;18.13;;
75135;SDS011;63707;52.212;9.540;2023-04-29T02:46:16;44.88;;;17.10;;
75135;SDS011;63707;52.212;9.540;2023-04-29T02:48:44;37.40;;;16.00;;
75135;SDS011;63707;52.212;9.540;2023-04-29T02:51:09;40.03;;;16.38;;
75135;SDS011;63707;52.212;9.540;2023-04-29T02:53:35;39.17;;;15.80;;
75135;SDS011;63707;52.212;9.540;2023-04-29T02:56:01;43.88;;;17.58;;
75135;SDS011;63707;52.212;9.540;2023-04-29T02:58:26;47.28;;;17.42;;
75135;SDS011;63707;52.212;9.540;2023-04-29T03:00:52;42.72;;;15.95;;
75135;SDS011;63707;52.212;9.540;2023-04-29T03:03:17;41.78;;;16.23;;
75135;SDS011;63707;52.212;9.540;2023-04-29T03:05:44;24.75;;;11.73;;
75135;SDS011;63707;52.212;9.540;2023-04-29T03:08:10;20.75;;;10.60;;
75135;SDS011;63707;52.212;9.540;2023-04-29T03:10:35;23.27;;;11.55;;
75135;SDS011;63707;52.212;9.540;2023-04-29T03:13:01;24.40;;;12.15;;
75135;SDS011;63707;52.212;9.540;2023-04-29T03:15:26;24.73;;;12.73;;
75135;SDS011;63707;52.212;9.540;2023-04-29T03:17:52;23.13;;;12.18;;
75135;SDS011;63707;52.212;9.540;2023-04-29T03:20:18;24.67;;;12.93;;
75135;SDS011;63707;52.212;9.540;2023-04-29T03:22:44;29.38;;;13.73;;
75135;SDS011;63707;52.212;9.540;2023-04-29T03:25:10;22.90;;;12.20;;
75135;SDS011;63707;52.212;9.540;2023-04-29T03:27:37;19.48;;;11.05;;
75135;SDS011;63707;52.212;9.540;2023-04-29T03:30:03;24.88;;;12.93;;
75135;SDS011;63707;52.212;9.540;2023-04-29T03:32:29;23.38;;;12.18;;
75135;SDS011;63707;52.212;9.540;2023-04-29T03:34:55;27.00;;;13.63;;
75135;SDS011;63707;52.212;9.540;2023-04-29T03:37:21;39.85;;;18.42;;
75135;SDS011;63707;52.212;9.540;2023-04-29T03:39:48;37.10;;;18.00;;
75135;SDS011;63707;52.212;9.540;2023-04-29T03:42:14;40.70;;;19.38;;
75135;SDS011;63707;52.212;9.540;2023-04-29T03:44:39;45.30;;;21.27;;
75135;SDS011;63707;52.212;9.540;2023-04-29T03:47:05;43.03;;;20.77;;
75135;SDS011;63707;52.212;9.540;2023-04-29T03:49:30;47.15;;;21.75;;
75135;SDS011;63707;52.212;9.540;2023-04-29T03:51:56;47.15;;;22.13;;
75135;SDS011;63707;52.212;9.540;2023-04-29T03:54:21;51.00;;;23.35;;
75135;SDS011;63707;52.212;9.540;2023-04-29T03:56:49;57.63;;;24.77;;
75135;SDS011;63707;52.212;9.540;2023-04-29T03:59:14;48.47;;;23.80;;
75135;SDS011;63707;52.212;9.540;2023-04-29T04:01:40;46.92;;;23.73;;
75135;SDS011;63707;52.212;9.540;2023-04-29T04:04:05;50.78;;;23.27;;
75135;SDS011;63707;52.212;9.540;2023-04-29T04:06:31;57.50;;;25.73;;
75135;SDS011;63707;52.212;9.540;2023-04-29T04:08:56;49.05;;;23.15;;
75135;SDS011;63707;52.212;9.540;2023-04-29T04:11:22;49.38;;;23.45;;
75135;SDS011;63707;52.212;9.540;2023-04-29T04:13:48;51.38;;;24.77;;
75135;SDS011;63707;52.212;9.540;2023-04-29T04:16:14;49.50;;;24.40;;
75135;SDS011;63707;52.212;9.540;2023-04-29T04:18:40;46.38;;;23.92;;
75135;SDS011;63707;52.212;9.540;2023-04-29T04:21:05;49.13;;;24.05;;
75135;SDS011;63707;52.212;9.540;2023-04-29T04:23:31;55.78;;;26.20;;
75135;SDS011;63707;52.212;9.540;2023-04-29T04:25:57;54.78;;;26.63;;
75135;SDS011;63707;52.212;9.540;2023-04-29T04:28:22;54.38;;;26.55;;
75135;SDS011;63707;52.212;9.540;2023-04-29T04:30:49;56.75;;;27.40;;
75135;SDS011;63707;52.212;9.540;2023-04-29T04:33:15;52.40;;;26.50;;
75135;SDS011;63707;52.212;9.540;2023-04-29T04:35:40;53.63;;;26.15;;
75135;SDS011;63707;52.212;9.540;2023-04-29T04:38:06;50.15;;;24.80;;
75135;SDS011;63707;52.212;9.540;2023-04-29T04:40:32;48.95;;;24.73;;
75135;SDS011;63707;52.212;9.540;2023-04-29T04:42:57;49.33;;;26.05;;
75135;SDS011;63707;52.212;9.540;2023-04-29T04:45:23;46.13;;;24.80;;
75135;SDS011;63707;52.212;9.540;2023-04-29T04:47:49;53.78;;;26.10;;
75135;SDS011;63707;52.212;9.540;2023-04-29T04:50:15;51.72;;;26.88;;
75135;SDS011;63707;52.212;9.540;2023-04-29T04:52:40;52.20;;;27.98;;
75135;SDS011;63707;52.212;9.540;2023-04-29T04:55:07;49.80;;;26.92;;
75135;SDS011;63707;52.212;9.540;2023-04-29T04:57:33;56.13;;;28.65;;
75135;SDS011;63707;52.212;9.540;2023-04-29T04:59:58;59.13;;;29.85;;
75135;SDS011;63707;52.212;9.540;2023-04-29T05:02:25;56.13;;;28.95;;
75135;SDS011;63707;52.212;9.540;2023-04-29T05:04:52;59.75;;;30.58;;
75135;SDS011;63707;52.212;9.540;2023-04-29T05:07:17;56.78;;;29.10;;
75135;SDS011;63707;52.212;9.540;2023-04-29T05:09:43;62.42;;;31.52;;
75135;SDS011;63707;52.212;9.540;2023-04-29T05:12:08;63.75;;;31.85;;
75135;SDS011;63707;52.212;9.540;2023-04-29T05:14:34;71.60;;;33.92;;
75135;SDS011;63707;52.212;9.540;2023-04-29T05:17:00;66.40;;;31.95;;
75135;SDS011;63707;52.212;9.540;2023-04-29T05:19:25;67.03;;;33.35;;
75135;SDS011;63707;52.212;9.540;2023-04-29T05:21:52;69.70;;;33.60;;
75135;SDS011;63707;52.212;9.540;2023-04-29T05:24:18;81.22;;;37.00;;
75135;SDS011;63707;52.212;9.540;2023-04-29T05:26:43;78.07;;;37.40;;
75135;SDS011;63707;52.212;9.540;2023-04-29T05:29:09;87.60;;;39.00;;
75135;SDS011;63707;52.212;9.540;2023-04-29T05:31:34;86.13;;;38.80;;
75135;SDS011;63707;52.212;9.540;2023-04-29T05:34:00;82.50;;;37.65;;
75135;SDS011;63707;52.212;9.540;2023-04-29T05:36:26;79.88;;;36.85;;
75135;SDS011;63707;52.212;9.540;2023-04-29T05:38:53;83.30;;;38.10;;
75135;SDS011;63707;52.212;9.540;2023-04-29T05:41:19;88.07;;;39.15;;
75135;SDS011;63707;52.212;9.540;2023-04-29T05:43:44;91.53;;;38.97;;
75135;SDS011;63707;52.212;9.540;2023-04-29T05:46:10;85.10;;;39.92;;
75135;SDS011;63707;52.212;9.540;2023-04-29T05:48:35;80.32;;;37.28;;
75135;SDS011;63707;52.212;9.540;2023-04-29T05:51:01;74.88;;;35.22;;
75135;SDS011;63707;52.212;9.540;2023-04-29T05:53:27;81.78;;;37.63;;
75135;SDS011;63707;52.212;9.540;2023-04-29T05:55:53;71.25;;;34.22;;
75135;SDS011;63707;52.212;9.540;2023-04-29T05:58:19;66.53;;;34.78;;
75135;SDS011;63707;52.212;9.540;2023-04-29T06:00:45;69.07;;;33.80;;
75135;SDS011;63707;52.212;9.540;2023-04-29T06:03:10;67.28;;;33.75;;
75135;SDS011;63707;52.212;9.540;2023-04-29T06:05:36;68.20;;;35.70;;
75135;SDS011;63707;52.212;9.540;2023-04-29T06:08:02;70.28;;;34.35;;
75135;SDS011;63707;52.212;9.540;2023-04-29T06:10:28;64.60;;;32.65;;
75135;SDS011;63707;52.212;9.540;2023-04-29T06:12:55;67.88;;;33.90;;
75135;SDS011;63707;52.212;9.540;2023-04-29T06:15:20;65.15;;;33.25;;
75135;SDS011;63707;52.212;9.540;2023-04-29T06:17:46;64.28;;;33.08;;
75135;SDS011;63707;52.212;9.540;2023-04-29T06:20:12;74.35;;;35.38;;
75135;SDS011;63707;52.212;9.540;2023-04-29T06:22:38;60.00;;;32.13;;
75135;SDS011;63707;52.212;9.540;2023-04-29T06:25:04;57.60;;;30.92;;
75135;SDS011;63707;52.212;9.540;2023-04-29T06:27:30;57.33;;;29.80;;
75135;SDS011;63707;52.212;9.540;2023-04-29T06:29:57;55.67;;;30.10;;
75135;SDS011;63707;52.212;9.540;2023-04-29T06:32:23;56.75;;;29.98;;
75135;SDS011;63707;52.212;9.540;2023-04-29T06:34:48;59.83;;;31.15;;
75135;SDS011;63707;52.212;9.540;2023-04-29T06:37:14;56.60;;;29.95;;
75135;SDS011;63707;52.212;9.540;2023-04-29T06:39:39;56.50;;;30.02;;
75135;SDS011;63707;52.212;9.540;2023-04-29T06:42:05;55.65;;;29.27;;
75135;SDS011;63707;52.212;9.540;2023-04-29T06:44:31;57.65;;;31.80;;
75135;SDS011;63707;52.212;9.540;2023-04-29T06:46:58;57.05;;;30.08;;
75135;SDS011;63707;52.212;9.540;2023-04-29T06:49:23;52.08;;;28.92;;
75135;SDS011;63707;52.212;9.540;2023-04-29T06:51:49;52.63;;;27.50;;
75135;SDS011;63707;52.212;9.540;2023-04-29T06:54:14;55.60;;;30.25;;
75135;SDS011;63707;52.212;9.540;2023-04-29T06:56:40;52.15;;;29.15;;
75135;SDS011;63707;52.212;9.540;2023-04-29T06:59:06;52.28;;;29.48;;
75135;SDS011;63707;52.212;9.540;2023-04-29T07:01:31;51.22;;;28.38;;
75135;SDS011;63707;52.212;9.540;2023-04-29T07:03:58;46.08;;;25.88;;
75135;SDS011;63707;52.212;9.540;2023-04-29T07:06:24;48.58;;;28.33;;
75135;SDS011;63707;52.212;9.540;2023-04-29T07:08:49;42.95;;;25.73;;
75135;SDS011;63707;52.212;9.540;2023-04-29T07:11:16;45.85;;;26.45;;
75135;SDS011;63707;52.212;9.540;2023-04-29T07:13:41;46.20;;;25.23;;
75135;SDS011;63707;52.212;9.540;2023-04-29T07:16:13;42.78;;;25.20;;
75135;SDS011;63707;52.212;9.540;2023-04-29T07:18:40;43.03;;;23.98;;
75135;SDS011;63707;52.212;9.540;2023-04-29T07:21:06;45.45;;;24.95;;
75135;SDS011;63707;52.212;9.540;2023-04-29T07:23:32;36.30;;;22.13;;
75135;SDS011;63707;52.212;9.540;2023-04-29T07:25:57;38.60;;;22.50;;
75135;SDS011;63707;52.212;9.540;2023-04-29T07:28:23;37.65;;;22.83;;
75135;SDS011;63707;52.212;9.540;2023-04-29T07:30:48;34.15;;;21.17;;
75135;SDS011;63707;52.212;9.540;2023-04-29T07:33:14;31.20;;;19.48;;
75135;SDS011;63707;52.212;9.540;2023-04-29T07:35:40;33.17;;;20.08;;
75135;SDS011;63707;52.212;9.540;2023-04-29T07:38:08;31.17;;;19.50;;
75135;SDS011;63707;52.212;9.540;2023-04-29T07:40:34;33.58;;;20.65;;
75135;SDS011;63707;52.212;9.540;2023-04-29T07:42:59;31.42;;;19.30;;
75135;SDS011;63707;52.212;9.540;2023-04-29T07:45:28;32.72;;;20.00;;
75135;SDS011;63707;52.212;9.540;2023-04-29T07:47:54;31.60;;;17.92;;
75135;SDS011;63707;52.212;9.540;2023-04-29T07:50:19;31.40;;;18.95;;
75135;SDS011;63707;52.212;9.540;2023-04-29T07:52:45;28.10;;;18.70;;
75135;SDS011;63707;52.212;9.540;2023-04-29T07:55:12;26.90;;;16.83;;
75135;SDS011;63707;52.212;9.540;2023-04-29T07:57:37;27.30;;;16.77;;
75135;SDS011;63707;52.212;9.540;2023-04-29T08:00:04;24.77;;;15.50;;
75135;SDS011;63707;52.212;9.540;2023-04-29T08:02:31;23.83;;;14.55;;
75135;SDS011;63707;52.212;9.540;2023-04-29T08:04:57;20.48;;;14.05;;
75135;SDS011;63707;52.212;9.540;2023-04-29T08:07:22;19.00;;;14.65;;
75135;SDS011;63707;52.212;9.540;2023-04-29T08:09:48;19.02;;;13.50;;
75135;SDS011;63707;52.212;9.540;2023-04-29T08:12:15;21.38;;;14.60;;
75135;SDS011;63707;52.212;9.540;2023-04-29T08:14:40;18.58;;;13.95;;
75135;SDS011;63707;52.212;9.540;2023-04-29T08:17:06;18.52;;;13.05;;
75135;SDS011;63707;52.212;9.540;2023-04-29T08:19:32;19.35;;;13.35;;
75135;SDS011;63707;52.212;9.540;2023-04-29T08:21:57;19.85;;;13.90;;
75135;SDS011;63707;52.212;9.540;2023-04-29T08:24:23;17.45;;;13.80;;
75135;SDS011;63707;52.212;9.540;2023-04-29T08:26:49;19.30;;;13.77;;
75135;SDS011;63707;52.212;9.540;2023-04-29T08:29:16;22.35;;;14.00;;
75135;SDS011;63707;52.212;9.540;2023-04-29T08:31:42;16.40;;;12.38;;
75135;SDS011;63707;52.212;9.540;2023-04-29T08:34:08;17.67;;;12.27;;
75135;SDS011;63707;52.212;9.540;2023-04-29T08:36:33;18.48;;;13.38;;
75135;SDS011;63707;52.212;9.540;2023-04-29T08:39:01;18.00;;;12.73;;
75135;SDS011;63707;52.212;9.540;2023-04-29T08:41:26;17.17;;;12.82;;
75135;SDS011;63707;52.212;9.540;2023-04-29T08:43:52;19.67;;;11.75;;
75135;SDS011;63707;52.212;9.540;2023-04-29T08:46:19;17.02;;;11.93;;
75135;SDS011;63707;52.212;9.540;2023-04-29T08:48:46;17.80;;;12.65;;
75135;SDS011;63707;52.212;9.540;2023-04-29T08:51:12;16.25;;;11.95;;
75135;SDS011;63707;52.212;9.540;2023-04-29T08:53:37;15.40;;;11.63;;
75135;SDS011;63707;52.212;9.540;2023-04-29T08:56:07;17.67;;;11.63;;
75135;SDS011;63707;52.212;9.540;2023-04-29T08:58:37;20.70;;;12.18;;
75135;SDS011;63707;52.212;9.540;2023-04-29T09:01:06;17.05;;;11.98;;
75135;SDS011;63707;52.212;9.540;2023-04-29T09:03:36;17.52;;;11.98;;
75135;SDS011;63707;52.212;9.540;2023-04-29T09:06:08;18.70;;;12.52;;
75135;SDS011;63707;52.212;9.540;2023-04-29T09:08:35;18.52;;;11.23;;
75135;SDS011;63707;52.212;9.540;2023-04-29T09:11:01;16.95;;;12.02;;
75135;SDS011;63707;52.212;9.540;2023-04-29T09:13:28;17.08;;;11.90;;
75135;SDS011;63707;52.212;9.540;2023-04-29T09:15:56;22.52;;;12.75;;
75135;SDS011;63707;52.212;9.540;2023-04-29T09:21:16;16.35;;;12.07;;
75135;SDS011;63707;52.212;9.540;2023-04-29T09:23:43;21.63;;;14.05;;
75135;SDS011;63707;52.212;9.540;2023-04-29T09:26:09;19.88;;;13.32;;
75135;SDS011;63707;52.212;9.540;2023-04-29T09:28:35;19.88;;;12.43;;
75135;SDS011;63707;52.212;9.540;2023-04-29T09:31:00;18.85;;;13.02;;
75135;SDS011;63707;52.212;9.540;2023-04-29T09:33:30;20.23;;;12.07;;
75135;SDS011;63707;52.212;9.540;2023-04-29T09:35:57;17.67;;;12.38;;
75135;SDS011;63707;52.212;9.540;2023-04-29T09:38:22;17.75;;;12.85;;
75135;SDS011;63707;52.212;9.540;2023-04-29T09:40:48;17.85;;;12.63;;
75135;SDS011;63707;52.212;9.540;2023-04-29T09:43:15;19.17;;;12.98;;
75135;SDS011;63707;52.212;9.540;2023-04-29T09:45:43;16.77;;;11.77;;
75135;SDS011;63707;52.212;9.540;2023-04-29T09:48:09;20.08;;;12.55;;
75135;SDS011;63707;52.212;9.540;2023-04-29T09:50:35;19.30;;;13.55;;
75135;SDS011;63707;52.212;9.540;2023-04-29T09:53:04;16.65;;;12.60;;
75135;SDS011;63707;52.212;9.540;2023-04-29T09:55:31;20.13;;;12.90;;
75135;SDS011;63707;52.212;9.540;2023-04-29T09:57:57;20.20;;;13.65;;
75135;SDS011;63707;52.212;9.540;2023-04-29T10:00:22;19.67;;;13.75;;
75135;SDS011;63707;52.212;9.540;2023-04-29T10:02:50;24.02;;;14.63;;
75135;SDS011;63707;52.212;9.540;2023-04-29T10:05:18;20.00;;;13.73;;
75135;SDS011;63707;52.212;9.540;2023-04-29T10:07:45;23.25;;;15.02;;
75135;SDS011;63707;52.212;9.540;2023-04-29T10:10:13;19.50;;;14.27;;
75135;SDS011;63707;52.212;9.540;2023-04-29T10:12:39;22.40;;;15.55;;
75135;SDS011;63707;52.212;9.540;2023-04-29T10:15:06;22.65;;;15.75;;
75135;SDS011;63707;52.212;9.540;2023-04-29T10:17:45;24.00;;;16.38;;
75135;SDS011;63707;52.212;9.540;2023-04-29T10:20:13;24.55;;;16.30;;
75135;SDS011;63707;52.212;9.540;2023-04-29T10:22:46;23.95;;;15.85;;
75135;SDS011;63707;52.212;9.540;2023-04-29T10:25:14;25.92;;;16.00;;
75135;SDS011;63707;52.212;9.540;2023-04-29T10:27:41;24.70;;;16.00;;
75135;SDS011;63707;52.212;9.540;2023-04-29T10:30:08;29.90;;;16.67;;
75135;SDS011;63707;52.212;9.540;2023-04-29T10:32:38;25.73;;;18.02;;
75135;SDS011;63707;52.212;9.540;2023-04-29T10:35:05;25.77;;;17.50;;
75135;SDS011;63707;52.212;9.540;2023-04-29T10:37:33;26.00;;;16.75;;
75135;SDS011;63707;52.212;9.540;2023-04-29T10:40:00;28.17;;;17.13;;
75135;SDS011;63707;52.212;9.540;2023-04-29T10:42:35;26.02;;;16.40;;
75135;SDS011;63707;52.212;9.540;2023-04-29T10:45:17;28.10;;;17.33;;
75135;SDS011;63707;52.212;9.540;2023-04-29T10:50:34;26.40;;;17.77;;
75135;SDS011;63707;52.212;9.540;2023-04-29T10:53:09;25.15;;;17.33;;
75135;SDS011;63707;52.212;9.540;2023-04-29T10:55:35;23.83;;;15.45;;
75135;SDS011;63707;52.212;9.540;2023-04-29T10:58:03;22.85;;;16.02;;
75135;SDS011;63707;52.212;9.540;2023-04-29T11:00:30;21.70;;;15.25;;
75135;SDS011;63707;52.212;9.540;2023-04-29T11:02:57;19.67;;;13.32;;
75135;SDS011;63707;52.212;9.540;2023-04-29T11:05:28;20.63;;;12.93;;
75135;SDS011;63707;52.212;9.540;2023-04-29T11:08:07;18.10;;;12.20;;
75135;SDS011;63707;52.212;9.540;2023-04-29T11:10:34;22.45;;;13.38;;
75135;SDS011;63707;52.212;9.540;2023-04-29T11:15:47;15.75;;;11.65;;
75135;SDS011;63707;52.212;9.540;2023-04-29T11:18:13;17.92;;;12.23;;
75135;SDS011;63707;52.212;9.540;2023-04-29T11:23:38;17.42;;;12.70;;
75135;SDS011;63707;52.212;9.540;2023-04-29T11:26:05;19.00;;;12.63;;
75135;SDS011;63707;52.212;9.540;2023-04-29T11:28:32;16.92;;;13.02;;
75135;SDS011;63707;52.212;9.540;2023-04-29T11:30:58;22.83;;;13.57;;
75135;SDS011;63707;52.212;9.540;2023-04-29T11:33:24;18.67;;;12.88;;
75135;SDS011;63707;52.212;9.540;2023-04-29T11:35:51;17.90;;;12.25;;
75135;SDS011;63707;52.212;9.540;2023-04-29T11:38:18;17.90;;;12.65;;
75135;SDS011;63707;52.212;9.540;2023-04-29T11:40:48;19.33;;;12.85;;
75135;SDS011;63707;52.212;9.540;2023-04-29T11:43:15;17.98;;;11.43;;
75135;SDS011;63707;52.212;9.540;2023-04-29T11:45:43;18.55;;;11.18;;
75135;SDS011;63707;52.212;9.540;2023-04-29T11:48:15;17.48;;;11.32;;
75135;SDS011;63707;52.212;9.540;2023-04-29T11:50:42;17.80;;;11.50;;
75135;SDS011;63707;52.212;9.540;2023-04-29T11:53:09;19.73;;;11.38;;
75135;SDS011;63707;52.212;9.540;2023-04-29T11:55:34;17.67;;;11.60;;
75135;SDS011;63707;52.212;9.540;2023-04-29T11:58:00;17.98;;;11.70;;
75135;SDS011;63707;52.212;9.540;2023-04-29T12:00:28;17.85;;;11.88;;
75135;SDS011;63707;52.212;9.540;2023-04-29T12:02:56;17.75;;;11.23;;
75135;SDS011;63707;52.212;9.540;2023-04-29T12:05:24;16.17;;;10.45;;
75135;SDS011;63707;52.212;9.540;2023-04-29T12:07:49;16.48;;;10.20;;
75135;SDS011;63707;52.212;9.540;2023-04-29T12:10:15;14.38;;;10.10;;
75135;SDS011;63707;52.212;9.540;2023-04-29T12:12:41;18.00;;;11.77;;
75135;SDS011;63707;52.212;9.540;2023-04-29T12:15:10;18.17;;;10.63;;
75135;SDS011;63707;52.212;9.540;2023-04-29T12:17:37;17.25;;;9.93;;
75135;SDS011;63707;52.212;9.540;2023-04-29T12:20:05;16.20;;;9.68;;
75135;SDS011;63707;52.212;9.540;2023-04-29T12:22:33;13.13;;;9.13;;
75135;SDS011;63707;52.212;9.540;2023-04-29T12:25:00;16.40;;;9.27;;
75135;SDS011;63707;52.212;9.540;2023-04-29T12:27:27;16.52;;;8.90;;
75135;SDS011;63707;52.212;9.540;2023-04-29T12:29:55;14.48;;;7.43;;
75135;SDS011;63707;52.212;9.540;2023-04-29T12:32:23;13.00;;;8.05;;
75135;SDS011;63707;52.212;9.540;2023-04-29T12:34:49;12.48;;;8.40;;
75135;SDS011;63707;52.212;9.540;2023-04-29T12:37:21;14.75;;;8.57;;
75135;SDS011;63707;52.212;9.540;2023-04-29T12:39:50;12.60;;;8.07;;
75135;SDS011;63707;52.212;9.540;2023-04-29T12:42:16;12.18;;;8.23;;
75135;SDS011;63707;52.212;9.540;2023-04-29T12:44:43;15.52;;;8.70;;
75135;SDS011;63707;52.212;9.540;2023-04-29T12:47:10;13.60;;;7.22;;
75135;SDS011;63707;52.212;9.540;2023-04-29T12:49:37;12.98;;;7.10;;
75135;SDS011;63707;52.212;9.540;2023-04-29T12:52:06;14.00;;;7.15;;
75135;SDS011;63707;52.212;9.540;2023-04-29T12:54:35;12.25;;;6.88;;
75135;SDS011;63707;52.212;9.540;2023-04-29T12:57:01;11.07;;;6.55;;
75135;SDS011;63707;52.212;9.540;2023-04-29T12:59:26;10.75;;;6.47;;
75135;SDS011;63707;52.212;9.540;2023-04-29T13:01:54;13.38;;;5.82;;
75135;SDS011;63707;52.212;9.540;2023-04-29T13:04:20;10.77;;;6.68;;
75135;SDS011;63707;52.212;9.540;2023-04-29T13:06:45;11.35;;;6.60;;
75135;SDS011;63707;52.212;9.540;2023-04-29T13:09:11;9.20;;;6.20;;
75135;SDS011;63707;52.212;9.540;2023-04-29T13:11:38;9.63;;;6.78;;
75135;SDS011;63707;52.212;9.540;2023-04-29T13:14:04;13.52;;;6.47;;
75135;SDS011;63707;52.212;9.540;2023-04-29T13:16:30;12.02;;;6.55;;
75135;SDS011;63707;52.212;9.540;2023-04-29T13:18:57;11.07;;;6.38;;
75135;SDS011;63707;52.212;9.540;2023-04-29T13:21:22;9.60;;;6.75;;
75135;SDS011;63707;52.212;9.540;2023-04-29T13:23:48;11.38;;;6.68;;
75135;SDS011;63707;52.212;9.540;2023-04-29T13:26:13;11.75;;;6.22;;
75135;SDS011;63707;52.212;9.540;2023-04-29T13:28:41;11.73;;;6.15;;
75135;SDS011;63707;52.212;9.540;2023-04-29T13:31:09;10.82;;;6.15;;
75135;SDS011;63707;52.212;9.540;2023-04-29T13:33:35;11.43;;;6.63;;
75135;SDS011;63707;52.212;9.540;2023-04-29T13:36:01;12.35;;;5.85;;
75135;SDS011;63707;52.212;9.540;2023-04-29T13:38:26;13.35;;;6.65;;
75135;SDS011;63707;52.212;9.540;2023-04-29T13:40:52;10.88;;;6.40;;
75135;SDS011;63707;52.212;9.540;2023-04-29T13:43:17;9.38;;;6.13;;
75135;SDS011;63707;52.212;9.540;2023-04-29T13:45:44;10.13;;;6.45;;
75135;SDS011;63707;52.212;9.540;2023-04-29T13:48:09;9.35;;;6.03;;
75135;SDS011;63707;52.212;9.540;2023-04-29T13:50:35;14.50;;;6.15;;
75135;SDS011;63707;52.212;9.540;2023-04-29T13:53:01;10.40;;;6.63;;
75135;SDS011;63707;52.212;9.540;2023-04-29T13:55:26;10.60;;;6.18;;
75135;SDS011;63707;52.212;9.540;2023-04-29T13:57:52;10.23;;;6.32;;
75135;SDS011;63707;52.212;9.540;2023-04-29T14:00:18;8.95;;;6.50;;
75135;SDS011;63707;52.212;9.540;2023-04-29T14:02:45;11.20;;;6.68;;
75135;SDS011;63707;52.212;9.540;2023-04-29T14:05:10;12.98;;;6.70;;
75135;SDS011;63707;52.212;9.540;2023-04-29T14:07:36;10.68;;;6.97;;
75135;SDS011;63707;52.212;9.540;2023-04-29T14:10:01;11.07;;;8.63;;
75135;SDS011;63707;52.212;9.540;2023-04-29T14:12:27;12.90;;;8.45;;
75135;SDS011;63707;52.212;9.540;2023-04-29T14:14:53;12.25;;;7.90;;
75135;SDS011;63707;52.212;9.540;2023-04-29T14:17:18;11.85;;;8.18;;
75135;SDS011;63707;52.212;9.540;2023-04-29T14:19:45;10.40;;;7.07;;
75135;SDS011;63707;52.212;9.540;2023-04-29T14:22:11;10.68;;;8.20;;
75135;SDS011;63707;52.212;9.540;2023-04-29T14:24:36;12.85;;;7.95;;
75135;SDS011;63707;52.212;9.540;2023-04-29T14:27:03;10.43;;;7.63;;
75135;SDS011;63707;52.212;9.540;2023-04-29T14:29:28;11.15;;;7.95;;
75135;SDS011;63707;52.212;9.540;2023-04-29T14:31:54;11.02;;;7.32;;